createdAt,value
2018-11-23T00:04:33.512Z,21.80
2018-11-23T00:09:37.016Z,23.32
2018-11-23T00:14:41.261Z,23.00
2018-11-23T00:19:47.117Z,23.25
2018-11-23T00:24:50.488Z,21.65
2018-11-23T00:29:53.804Z,23.47
2018-11-23T00:34:57.168Z,24.95
2018-11-23T00:40:00.501Z,25.23
2018-11-23T00:45:04.971Z,23.40
2018-11-23T00:50:10.700Z,23.00
2018-11-23T00:55:15.416Z,20.90
2018-11-23T01:00:35.216Z,23.20
2018-11-23T01:05:38.659Z,24.82
2018-11-23T01:10:41.996Z,21.65
2018-11-23T01:15:45.487Z,24.32
2018-11-23T01:20:48.832Z,21.93
2018-11-23T01:25:52.145Z,24.83
2018-11-23T01:30:55.485Z,22.37
2018-11-23T01:35:58.810Z,23.67
2018-11-23T01:41:02.163Z,24.05
2018-11-23T01:46:05.578Z,25.00
2018-11-23T01:51:09.061Z,24.30
2018-11-23T01:56:12.504Z,22.23
2018-11-23T02:01:16.798Z,20.05
2018-11-23T02:06:26.551Z,24.30
2018-11-23T02:11:29.989Z,21.60
2018-11-23T02:16:33.415Z,21.90
2018-11-23T02:21:55.239Z,21.87
2018-11-23T02:27:03.772Z,22.15
2018-11-23T02:32:09.393Z,22.87
2018-11-23T02:37:13.323Z,25.40
2018-11-23T02:42:17.417Z,21.42
2018-11-23T02:47:35.154Z,23.43
2018-11-23T02:52:39.509Z,25.13
2018-11-23T02:57:43.320Z,26.50
2018-11-23T03:02:46.693Z,25.05
2018-11-23T03:07:52.046Z,25.40
2018-11-23T03:12:56.279Z,21.70
2018-11-23T03:17:59.677Z,23.93
2018-11-23T03:23:03.033Z,22.10
2018-11-23T03:28:06.455Z,23.37
2018-11-23T03:33:09.799Z,24.37
2018-11-23T03:38:13.218Z,23.77
2018-11-23T03:43:16.637Z,24.45
2018-11-23T03:48:26.811Z,27.87
2018-11-23T03:53:30.156Z,23.52
2018-11-23T03:58:33.703Z,25.30
2018-11-23T04:03:37.114Z,24.23
2018-11-23T04:08:40.757Z,25.60
2018-11-23T04:13:45.181Z,26.43
2018-11-23T04:18:48.642Z,24.90
2018-11-23T04:23:51.984Z,22.98
2018-11-23T04:28:55.841Z,24.45
2018-11-23T04:33:59.280Z,24.02
2018-11-23T04:39:02.684Z,23.65
2018-11-23T04:44:06.626Z,26.45
2018-11-23T04:54:47.125Z,25.52
2018-11-23T04:59:50.660Z,25.07
2018-11-23T05:04:53.992Z,25.17
2018-11-23T05:10:00.404Z,25.90
2018-11-23T05:15:04.743Z,24.60
2018-11-23T05:20:09.443Z,26.33
2018-11-23T05:25:15.814Z,24.77
2018-11-23T05:30:24.658Z,25.02
2018-11-23T05:37:37.973Z,27.62
2018-11-23T05:43:04.499Z,29.13
2018-11-23T05:48:05.566Z,26.20
2018-11-23T05:53:09.527Z,27.33
2018-11-23T06:03:15.964Z,26.12
2018-11-23T06:08:21.053Z,26.12
2018-11-23T06:13:24.809Z,25.73
2018-11-23T06:18:28.502Z,25.03
2018-11-23T06:23:32.172Z,28.05
2018-11-23T06:28:35.815Z,25.15
2018-11-23T06:33:42.820Z,24.37
2018-11-23T06:38:46.647Z,26.27
2018-11-23T06:43:50.408Z,23.40
2018-11-23T06:48:54.447Z,23.92
2018-11-23T06:53:58.308Z,22.77
2018-11-23T06:59:01.922Z,22.62
2018-11-23T07:04:05.473Z,24.40
2018-11-23T07:09:09.392Z,23.20
2018-11-23T07:14:12.871Z,25.32
2018-11-23T07:19:16.458Z,23.80
2018-11-23T07:24:19.928Z,23.90
2018-11-23T07:29:23.566Z,23.45
2018-11-23T07:34:27.094Z,24.60
2018-11-23T07:39:41.717Z,24.18
2018-11-23T07:44:45.628Z,25.60
2018-11-23T07:49:49.356Z,26.33
2018-11-23T07:54:52.861Z,29.70
2018-11-23T07:59:56.574Z,33.10
2018-11-23T08:04:59.955Z,31.52
2018-11-23T08:10:02.538Z,29.90
2018-11-23T08:15:13.863Z,31.27
2018-11-23T08:20:18.697Z,30.52
2018-11-23T08:25:23.149Z,31.47
2018-11-23T08:30:27.995Z,28.70
2018-11-23T08:35:31.378Z,29.67
2018-11-23T08:40:34.785Z,28.57
2018-11-23T08:45:38.105Z,29.10
2018-11-23T08:50:41.489Z,27.10
2018-11-23T08:55:44.844Z,27.75
2018-11-23T09:01:00.099Z,28.07
2018-11-23T09:06:26.919Z,27.05
2018-11-23T09:11:30.383Z,27.27
2018-11-23T09:17:41.337Z,25.45
2018-11-23T09:22:54.047Z,25.60
2018-11-23T09:28:06.173Z,25.50
2018-11-23T09:38:37.713Z,24.50
2018-11-23T09:48:55.101Z,24.32
2018-11-23T09:53:58.551Z,23.50
2018-11-23T09:59:02.044Z,23.90
2018-11-23T10:04:05.506Z,22.48
2018-11-23T10:09:09.045Z,22.17
2018-11-23T10:14:12.526Z,21.82
2018-11-23T10:19:24.545Z,20.97
2018-11-23T10:24:43.706Z,22.35
2018-11-23T10:29:51.854Z,21.55
2018-11-23T10:34:52.127Z,21.80
2018-11-23T10:39:55.547Z,21.75
2018-11-23T10:44:58.889Z,21.45
2018-11-23T10:50:02.249Z,20.75
2018-11-23T10:55:12.181Z,20.48
2018-11-23T11:00:21.690Z,21.00
2018-11-23T11:05:35.352Z,20.17
2018-11-23T11:10:38.785Z,18.50
2018-11-23T11:15:52.112Z,18.37
2018-11-23T11:20:55.544Z,19.73
2018-11-23T11:26:12.908Z,19.57
2018-11-23T11:31:16.449Z,19.00
2018-11-23T11:36:21.003Z,19.07
2018-11-23T11:41:27.658Z,19.30
2018-11-23T11:51:33.222Z,19.07
2018-11-23T11:56:36.566Z,17.70
2018-11-23T12:01:39.902Z,17.12
2018-11-23T12:06:43.349Z,18.23
2018-11-23T12:11:46.924Z,17.23
2018-11-23T12:16:50.265Z,17.80
2018-11-23T12:21:53.794Z,16.75
2018-11-23T12:26:57.554Z,16.50
2018-11-23T12:32:02.767Z,16.93
2018-11-23T12:37:06.527Z,16.62
2018-11-23T12:42:10.003Z,18.00
2018-11-23T12:47:13.352Z,16.70
2018-11-23T12:52:16.900Z,15.97
2018-11-23T12:57:20.330Z,17.20
2018-11-23T13:02:23.803Z,15.10
2018-11-23T13:07:27.222Z,15.93
2018-11-23T13:12:30.891Z,15.70
2018-11-23T13:17:34.305Z,16.17
2018-11-23T13:22:37.883Z,16.80
2018-11-23T13:28:01.147Z,17.27
2018-11-23T13:33:04.634Z,16.57
2018-11-23T13:38:22.096Z,17.20
2018-11-23T13:43:25.492Z,17.47
2018-11-23T13:48:28.913Z,16.93
2018-11-23T13:53:33.642Z,17.63
2018-11-23T13:58:37.052Z,18.12
2018-11-23T14:03:41.249Z,17.82
2018-11-23T14:08:44.753Z,17.60
2018-11-23T14:13:48.282Z,18.37
2018-11-23T14:18:53.214Z,19.20
2018-11-23T14:23:57.615Z,17.85
2018-11-23T14:34:08.137Z,19.30
2018-11-23T14:39:11.528Z,19.50
2018-11-23T14:44:15.581Z,20.88
2018-11-23T14:49:19.882Z,21.57
2018-11-23T14:54:23.310Z,20.50
2018-11-23T14:59:27.082Z,19.42
2018-11-23T15:04:32.663Z,18.80
2018-11-23T15:09:36.016Z,20.62
2018-11-23T15:14:39.327Z,18.10
2018-11-23T15:19:42.639Z,17.65
2018-11-23T15:24:46.051Z,19.30
2018-11-23T15:29:51.228Z,19.75
2018-11-23T15:34:55.239Z,19.55
2018-11-23T15:39:58.796Z,20.15
2018-11-23T15:45:02.825Z,20.00
2018-11-23T15:50:08.383Z,20.57
2018-11-23T15:55:15.550Z,19.60
2018-11-23T16:00:22.497Z,20.88
2018-11-23T16:05:28.900Z,20.37
2018-11-23T16:10:36.328Z,21.20
2018-11-23T16:15:39.788Z,19.32
2018-11-23T16:25:51.540Z,20.27
2018-11-23T16:31:00.654Z,19.37
2018-11-23T16:36:04.140Z,20.00
2018-11-23T16:41:08.173Z,20.32
2018-11-23T16:46:11.601Z,19.57
2018-11-23T16:51:15.193Z,19.47
2018-11-23T16:56:19.537Z,19.90
2018-11-23T17:01:22.958Z,19.80
2018-11-23T17:06:26.275Z,18.70
2018-11-23T17:11:29.647Z,20.03
2018-11-23T17:16:33.083Z,17.62
2018-11-23T17:21:36.436Z,19.10
2018-11-23T17:26:44.001Z,18.67
2018-11-23T17:31:49.386Z,18.90
2018-11-23T17:36:52.846Z,19.30
2018-11-23T17:41:56.406Z,18.15
2018-11-23T17:46:59.991Z,18.80
2018-11-23T17:52:03.616Z,17.82
2018-11-23T17:57:06.926Z,17.82
2018-11-23T18:02:11.103Z,17.33
2018-11-23T18:07:14.822Z,17.57
2018-11-23T18:12:18.134Z,19.23
2018-11-23T18:17:25.241Z,18.82
2018-11-23T18:22:29.189Z,18.40
2018-11-23T18:27:33.630Z,18.73
2018-11-23T18:32:35.968Z,20.30
2018-11-23T18:37:57.015Z,17.60
2018-11-23T18:43:00.491Z,18.47
2018-11-23T18:48:04.000Z,18.98
2018-11-23T18:53:07.366Z,20.25
2018-11-23T18:58:10.826Z,18.12
2018-11-23T19:03:14.228Z,20.50
2018-11-23T19:08:17.542Z,22.77
2018-11-23T19:13:21.025Z,22.22
2018-11-23T19:18:24.349Z,22.40
2018-11-23T19:23:27.774Z,22.27
2018-11-23T19:28:31.251Z,23.75
2018-11-23T19:33:34.616Z,24.23
2018-11-23T19:38:37.970Z,22.70
2018-11-23T19:43:41.297Z,24.12
2018-11-23T19:48:44.699Z,24.20
2018-11-23T19:53:48.085Z,23.05
2018-11-23T19:58:51.559Z,24.70
2018-11-23T20:03:54.941Z,25.35
2018-11-23T20:08:58.389Z,24.07
2018-11-23T20:14:01.786Z,24.37
2018-11-23T20:19:05.169Z,24.85
2018-11-23T20:24:08.594Z,25.05
2018-11-23T20:29:11.918Z,25.20
2018-11-23T20:34:15.341Z,24.90
2018-11-23T20:39:18.755Z,24.27
2018-11-23T20:44:24.070Z,24.57
2018-11-23T20:49:28.201Z,24.95
2018-11-23T20:54:39.570Z,24.30
2018-11-23T20:59:45.933Z,22.87
2018-11-23T21:04:49.520Z,22.30
2018-11-23T21:09:53.836Z,21.37
2018-11-23T21:15:00.190Z,22.17
2018-11-23T21:20:05.393Z,21.82
2018-11-23T21:25:20.370Z,19.40
2018-11-23T21:47:10.554Z,20.83
2018-11-23T21:52:14.835Z,20.88
2018-11-23T21:57:19.734Z,20.32
2018-11-23T22:02:23.422Z,18.42
2018-11-23T22:07:45.127Z,19.87
2018-11-23T22:12:49.424Z,18.85
2018-11-23T22:17:55.535Z,17.70
2018-11-23T22:23:05.286Z,17.73
2018-11-23T22:28:17.303Z,21.33
2018-11-23T22:33:27.430Z,18.15
2018-11-23T22:38:33.181Z,18.32
2018-11-23T22:43:40.504Z,16.42
2018-11-23T22:48:46.879Z,18.10
2018-11-23T22:53:51.064Z,17.95
2018-11-23T22:58:57.799Z,18.57
2018-11-23T23:04:03.025Z,19.60
2018-11-23T23:09:12.462Z,17.63
2018-11-23T23:14:20.957Z,18.10
2018-11-23T23:19:31.388Z,18.70
2018-11-23T23:24:39.689Z,20.83
2018-11-23T23:29:44.567Z,21.35
2018-11-23T23:45:44.201Z,19.98
2018-11-23T23:50:47.667Z,21.30
2018-11-23T23:55:53.288Z,19.77
